Atlantic Jupiter — VREY5 — position and weather

sailwx.info

Track history (hours):
 
Tides and Currents Weather Stations Pressure Air Temp Water Temp Dewpoint Dewpoint Depression Visibility Wind Speed Wind Dir Waves Ship Positions

Atlantic Jupiter

Last reported at 2018-Jun-24 12:30 UTC. Time now 2018-Jun-24 12:34 UTC.
Position N 50°14' W 000°51'.

Length 184 m; draft 7.8 m.

Type: Ship. MMSI: 477201400.

Date/timePositionNaut miles runAvg speedWind from/ knotsBaromVisibWave heightAir tempDewpointWater temp
2018-Jun-24 12:30N 50°14' W 000°51'612.4
2018-Jun-24 12:01N 50°18' W 000°44'713.6
2018-Jun-24 11:30N 50°21' W 000°34'713.4
2018-Jun-24 11:00N 50°23' W 000°24'612.9
2018-Jun-24 10:31N 50°25' W 000°14'612.5
2018-Jun-24 10:01N 50°27' W 000°05'612.3
2018-Jun-24 09:31N 50°29' E 000°04'611.8
2018-Jun-24 09:01N 50°31' E 000°13'611.5
2018-Jun-24 08:30N 50°33' E 000°21'611.1
2018-Jun-24 08:00N 50°35' E 000°29'510.6
2018-Jun-24 07:31N 50°37' E 000°37'510.6
2018-Jun-24 07:01N 50°40' E 000°44'510.5
2018-Jun-24 06:31N 50°43' E 000°51'510.7
2018-Jun-24 06:00N 50°46' E 000°58'611.4
2018-Jun-24 05:31N 50°49' E 001°05'612.3
2018-Jun-24 05:00N 50°53' E 001°13'713.0
2018-Jun-24 04:30N 50°57' E 001°21'713.5
2018-Jun-24 04:00N 51°02' E 001°28'713.8
2018-Jun-24 03:30N 51°07' E 001°36'713.3
2018-Jun-24 03:01N 51°11' E 001°44'612.6
2018-Jun-24 02:30N 51°17' E 001°48'611.8
2018-Jun-24 02:01N 51°22' E 001°53'611.1
2018-Jun-24 01:31N 51°27' E 001°57'510.8
2018-Jun-24 01:01N 51°31' E 002°03'510.5
2018-Jun-24 00:30N 51°35' E 002°08'510.3
2018-Jun-24 00:01N 51°39' E 002°14'510.1
2018-Jun-23 23:30N 51°42' E 002°20'5 9.8
2018-Jun-23 23:01N 51°46' E 002°26'5 9.9
2018-Jun-23 22:30N 51°49' E 002°31'5 9.9
2018-Jun-23 22:00N 51°53' E 002°37'510.2
2018-Jun-23 21:30N 51°57' E 002°42'610.5
2018-Jun-23 20:58N 52°01' E 002°48'510.2
2018-Jun-23 20:30N 52°02' E 002°56'611.0
2018-Jun-23 19:59N 52°03' E 003°05'711.3
2018-Jun-23 19:25N 52°03' E 003°15'511.5
2018-Jun-23 19:00N 52°03' E 003°23'611.5
2018-Jun-23 18:31N 52°04' E 003°32'510.2
2018-Jun-23 18:00N 52°03' E 003°41'5 9.6
2018-Jun-23 17:30N 52°03' E 003°48'4 7.5
2018-Jun-23 17:00N 52°03' E 003°54'510.4
2018-Jun-23 16:31N 52°00' E 004°01'510.1
2018-Jun-23 16:01N 51°57' E 004°08'0 0.5
2018-Jun-23 15:30N 51°57' E 004°09'0 0.0
2018-Jun-23 15:00N 51°57' E 004°09'0 0.0
2018-Jun-23 14:30N 51°57' E 004°09'0 0.0
2018-Jun-23 14:00N 51°57' E 004°09'0 0.0
2018-Jun-23 13:30N 51°57' E 004°09'0 0.0
2018-Jun-23 13:00N 51°57' E 004°09'0 0.0
2018-Jun-23 12:30N 51°57' E 004°09'0 0.0
2018-Jun-23 12:00N 51°57' E 004°09'0 0.0
2018-Jun-23 11:30N 51°57' E 004°09'0 0.0
2018-Jun-23 11:00N 51°57' E 004°09'0 0.0
2018-Jun-23 10:30N 51°57' E 004°09'0 0.0
2018-Jun-23 10:00N 51°57' E 004°09'0 0.0
2018-Jun-23 09:30N 51°57' E 004°09'0 0.0
2018-Jun-23 09:00N 51°57' E 004°09'0 0.0
2018-Jun-23 08:27N 51°57' E 004°09'0 0.0
2018-Jun-23 08:00N 51°57' E 004°09'0 0.0
2018-Jun-23 07:30N 51°57' E 004°09'0 0.0
2018-Jun-23 06:57N 51°57' E 004°09'0 0.0
2018-Jun-23 06:30N 51°57' E 004°09'0 0.0
2018-Jun-23 06:00N 51°57' E 004°09'0 0.0
2018-Jun-23 05:30N 51°57' E 004°09'0 0.0
2018-Jun-23 04:54N 51°57' E 004°09'0 0.0
2018-Jun-23 04:30N 51°57' E 004°09'0 0.0
2018-Jun-23 04:00N 51°57' E 004°09'0 0.0
2018-Jun-23 03:30N 51°57' E 004°09'0 0.0
2018-Jun-23 02:54N 51°57' E 004°09'0 0.0
2018-Jun-23 02:30N 51°57' E 004°09'0 0.0
2018-Jun-23 02:00N 51°57' E 004°09'0 0.0
2018-Jun-23 01:30N 51°57' E 004°09'0 0.0
2018-Jun-23 01:00N 51°57' E 004°09'0 0.0
2018-Jun-23 00:30N 51°57' E 004°09'0 0.0
2018-Jun-23 00:00N 51°57' E 004°09'0 0.0
2018-Jun-22 23:30N 51°57' E 004°09'0 0.0
2018-Jun-22 23:00N 51°57' E 004°09'0 0.0
2018-Jun-22 22:30N 51°57' E 004°09'0 0.0
2018-Jun-22 22:00N 51°57' E 004°09'0 0.0
2018-Jun-22 21:30N 51°57' E 004°09'0 0.0
2018-Jun-22 20:57N 51°57' E 004°09'0 0.0
2018-Jun-22 20:30N 51°57' E 004°09'0 0.0
2018-Jun-22 20:00N 51°57' E 004°09'0 0.0
2018-Jun-22 19:30N 51°57' E 004°09'0 0.0
2018-Jun-22 19:00N 51°57' E 004°09'0 0.0
2018-Jun-22 18:30N 51°57' E 004°09'0 0.0
2018-Jun-22 18:00N 51°57' E 004°09'0 0.0
2018-Jun-22 17:30N 51°57' E 004°09'0 0.0
2018-Jun-22 17:00N 51°57' E 004°09'0 0.0
2018-Jun-22 16:30N 51°57' E 004°09'0 0.0
2018-Jun-22 16:00N 51°57' E 004°09'0 0.0
2018-Jun-22 15:30N 51°57' E 004°09'0 0.0
2018-Jun-22 15:00N 51°57' E 004°09'0 0.0
2018-Jun-22 14:30N 51°57' E 004°09'0 0.0
2018-Jun-22 14:00N 51°57' E 004°09'0 0.0
2018-Jun-22 13:30N 51°57' E 004°09'0 0.0
2018-Jun-22 13:00N 51°57' E 004°09'0 0.0
2018-Jun-22 12:30N 51°57' E 004°09'0 0.0
2018-Jun-22 12:00N 51°57' E 004°09'0 0.0
2018-Jun-22 11:30N 51°57' E 004°09'0 0.0
2018-Jun-22 11:00N 51°57' E 004°09'0 0.0
2018-Jun-22 10:30N 51°57' E 004°09'0 0.0
2018-Jun-22 10:00N 51°57' E 004°09'0 0.0
2018-Jun-22 09:30N 51°57' E 004°09'0 0.0
2018-Jun-22 09:00N 51°57' E 004°09'0 0.0
2018-Jun-22 08:30N 51°57' E 004°09'0 0.0
2018-Jun-22 08:00N 51°57' E 004°09'0 0.0
2018-Jun-22 07:30N 51°57' E 004°09'0 0.0
2018-Jun-22 07:00N 51°57' E 004°09'0 0.0
2018-Jun-22 06:30N 51°57' E 004°09'0 0.0
2018-Jun-22 06:00N 51°57' E 004°09'0 0.0
2018-Jun-22 05:30N 51°57' E 004°09'0 0.0
2018-Jun-22 05:00N 51°57' E 004°09'0 0.0
2018-Jun-22 04:30N 51°57' E 004°09'0 0.0
2018-Jun-22 04:00N 51°57' E 004°09'0 0.0
2018-Jun-22 03:30N 51°57' E 004°09'0 0.0
2018-Jun-22 03:00N 51°57' E 004°09'0 0.0
2018-Jun-22 02:30N 51°57' E 004°09'0 0.0
2018-Jun-22 02:00N 51°57' E 004°09'0 0.0
2018-Jun-22 01:30N 51°57' E 004°09'0 0.0
2018-Jun-22 01:00N 51°57' E 004°09'0 0.0
2018-Jun-22 00:30N 51°57' E 004°09'0 0.0
2018-Jun-22 00:00N 51°57' E 004°09'0 0.0
2018-Jun-21 23:30N 51°57' E 004°09'0 0.0
2018-Jun-21 23:00N 51°57' E 004°09'0 0.0
2018-Jun-21 22:30N 51°57' E 004°09'0 0.0
2018-Jun-21 22:00N 51°57' E 004°09'0 0.0
2018-Jun-21 21:30N 51°57' E 004°09'0 0.0
2018-Jun-21 21:00N 51°57' E 004°09'0 0.0
2018-Jun-21 20:30N 51°57' E 004°09'0 0.0
2018-Jun-21 19:54N 51°57' E 004°09'0 0.0
2018-Jun-21 19:30N 51°57' E 004°09'0 0.0
2018-Jun-21 19:00N 51°57' E 004°09'0 0.0
2018-Jun-21 18:30N 51°57' E 004°09'0 0.0
2018-Jun-21 17:57N 51°57' E 004°09'0 0.0
2018-Jun-21 17:30N 51°57' E 004°09'0 0.0
2018-Jun-21 17:00N 51°57' E 004°09'0 0.0
2018-Jun-21 16:30N 51°57' E 004°09'0 0.2
2018-Jun-21 16:00N 51°57' E 004°09'3 5.9
2018-Jun-21 15:30N 51°59' E 004°04'5 9.6
2018-Jun-21 15:00N 51°60' E 003°57'4 7.9
2018-Jun-21 14:30N 51°59' E 003°50'4 8.6
2018-Jun-21 14:00N 51°59' E 003°44'4 7.4
2018-Jun-21 13:30N 51°58' E 003°38'510.0
2018-Jun-21 13:00N 51°56' E 003°30'510.1
2018-Jun-21 12:30N 51°55' E 003°22'510.0
2018-Jun-21 11:57N 51°54' E 003°13'4 5.2
2018-Jun-21 11:05N 51°52' E 003°07'1 9.2
2018-Jun-21 11:00N 51°52' E 003°06'444 9.4
2018-Jun-19 11:50N 57°39' E 011°05'310.5
2018-Jun-19 11:30N 57°37' E 011°09'510.4
2018-Jun-19 11:00N 57°33' E 011°16'510.2
2018-Jun-19 10:30N 57°29' E 011°23'510.1
2018-Jun-19 10:00N 57°25' E 011°28'510.7
2018-Jun-19 09:30N 57°20' E 011°33'12510.3
2018-Jun-18 21:22N 55°16' E 011°05'411.0
2018-Jun-18 21:00N 55°12' E 011°06'611.4
2018-Jun-18 20:30N 55°07' E 011°03'611.5
2018-Jun-18 20:00N 55°01' E 010°60'511.0
2018-Jun-18 19:30N 54°57' E 010°54'510.8
2018-Jun-18 19:01N 54°52' E 010°50'510.3
2018-Jun-18 18:31N 54°47' E 010°49'611.1
2018-Jun-18 18:00N 54°41' E 010°48'511.0
2018-Jun-18 17:31N 54°38' E 010°55'510.7
2018-Jun-18 17:00N 54°36' E 011°04'510.9
2018-Jun-18 16:31N 54°36' E 011°13'611.4
2018-Jun-18 16:00N 54°33' E 011°22'611.8
2018-Jun-18 15:31N 54°31' E 011°31'611.4
2018-Jun-18 15:00N 54°28' E 011°40'611.1
2018-Jun-18 14:30N 54°27' E 011°50'611.7
2018-Jun-18 14:00N 54°27' E 011°60'611.7
2018-Jun-18 13:30N 54°27' E 012°10'510.7
2018-Jun-18 13:00N 54°31' E 012°14'6010.3
2018-Jun-18 07:10N 54°60' E 013°46'312.2
2018-Jun-18 06:57N 55°01' E 013°50'1212.0
2018-Jun-18 05:59N 55°07' E 014°08'912.2
2018-Jun-18 05:16N 55°14' E 014°17'412.3
2018-Jun-18 04:56N 55°17' E 014°22'512.4
2018-Jun-18 04:30N 55°21' E 014°28'612.2
2018-Jun-18 04:00N 55°26' E 014°35'612.1
2018-Jun-18 03:29N 55°29' E 014°44'611.9
2018-Jun-18 03:00N 55°31' E 014°53'611.8
2018-Jun-18 02:27N 55°34' E 015°04'812.1
2018-Jun-18 01:47N 55°38' E 015°16'312.1
2018-Jun-18 01:30N 55°39' E 015°22'1112.1
2018-Jun-18 00:36N 55°41' E 015°41'6112.3
2018-Jun-17 19:36N 55°56' E 017°27'112.3
2018-Jun-17 19:30N 55°57' E 017°29'612.0
2018-Jun-17 18:58N 55°59' E 017°40'612.3
2018-Jun-17 18:31N 56°01' E 017°49'1312.2
2018-Jun-17 17:28N 56°08' E 018°08'1712.2
2018-Jun-17 16:07N 56°17' E 018°33'9712.3
2018-Jun-17 08:11N 57°41' E 020°01'2111.1
2018-Jun-17 06:19N 57°49' E 020°37'412.4
2018-Jun-17 06:00N 57°50' E 020°44'712.4
2018-Jun-17 05:25N 57°50' E 020°58'612.3
2018-Jun-17 04:55N 57°51' E 021°10'512.3
2018-Jun-17 04:30N 57°51' E 021°19'712.4
2018-Jun-17 03:56N 57°51' E 021°32'  
Track history (hours):
 
Tides and Currents Weather Stations Pressure Air Temp Water Temp Dewpoint Dewpoint Depression Visibility Wind Speed Wind Dir Waves Ship Positions

Atlantic Jupiter

Last reported at 2018-Jun-24 12:30 UTC. Time now 2018-Jun-24 12:34 UTC.
Position N 50°14' W 000°51'.

Length 184 m; draft 7.8 m.

Type: Ship. MMSI: 477201400.

Date/timePositionNaut miles runAvg speedWind from/ knotsBaromVisibWave heightAir tempDewpointWater temp
2018-Jun-24 12:30N 50°14' W 000°51'612.4
2018-Jun-24 12:01N 50°18' W 000°44'713.6
2018-Jun-24 11:30N 50°21' W 000°34'713.4
2018-Jun-24 11:00N 50°23' W 000°24'612.9
2018-Jun-24 10:31N 50°25' W 000°14'612.5
2018-Jun-24 10:01N 50°27' W 000°05'612.3
2018-Jun-24 09:31N 50°29' E 000°04'611.8
2018-Jun-24 09:01N 50°31' E 000°13'611.5
2018-Jun-24 08:30N 50°33' E 000°21'611.1
2018-Jun-24 08:00N 50°35' E 000°29'510.6
2018-Jun-24 07:31N 50°37' E 000°37'510.6
2018-Jun-24 07:01N 50°40' E 000°44'510.5
2018-Jun-24 06:31N 50°43' E 000°51'510.7
2018-Jun-24 06:00N 50°46' E 000°58'611.4
2018-Jun-24 05:31N 50°49' E 001°05'612.3
2018-Jun-24 05:00N 50°53' E 001°13'713.0
2018-Jun-24 04:30N 50°57' E 001°21'713.5
2018-Jun-24 04:00N 51°02' E 001°28'713.8
2018-Jun-24 03:30N 51°07' E 001°36'713.3
2018-Jun-24 03:01N 51°11' E 001°44'612.6
2018-Jun-24 02:30N 51°17' E 001°48'611.8
2018-Jun-24 02:01N 51°22' E 001°53'611.1
2018-Jun-24 01:31N 51°27' E 001°57'510.8
2018-Jun-24 01:01N 51°31' E 002°03'510.5
2018-Jun-24 00:30N 51°35' E 002°08'510.3
2018-Jun-24 00:01N 51°39' E 002°14'510.1
2018-Jun-23 23:30N 51°42' E 002°20'5 9.8
2018-Jun-23 23:01N 51°46' E 002°26'5 9.9
2018-Jun-23 22:30N 51°49' E 002°31'5 9.9
2018-Jun-23 22:00N 51°53' E 002°37'510.2
2018-Jun-23 21:30N 51°57' E 002°42'610.5
2018-Jun-23 20:58N 52°01' E 002°48'510.2
2018-Jun-23 20:30N 52°02' E 002°56'611.0
2018-Jun-23 19:59N 52°03' E 003°05'711.3
2018-Jun-23 19:25N 52°03' E 003°15'511.5
2018-Jun-23 19:00N 52°03' E 003°23'611.5
2018-Jun-23 18:31N 52°04' E 003°32'510.2
2018-Jun-23 18:00N 52°03' E 003°41'5 9.6
2018-Jun-23 17:30N 52°03' E 003°48'4 7.5
2018-Jun-23 17:00N 52°03' E 003°54'510.4
2018-Jun-23 16:31N 52°00' E 004°01'510.1
2018-Jun-23 16:01N 51°57' E 004°08'0 0.5
2018-Jun-23 15:30N 51°57' E 004°09'0 0.0
2018-Jun-23 15:00N 51°57' E 004°09'0 0.0
2018-Jun-23 14:30N 51°57' E 004°09'0 0.0
2018-Jun-23 14:00N 51°57' E 004°09'0 0.0
2018-Jun-23 13:30N 51°57' E 004°09'0 0.0
2018-Jun-23 13:00N 51°57' E 004°09'0 0.0
2018-Jun-23 12:30N 51°57' E 004°09'0 0.0
2018-Jun-23 12:00N 51°57' E 004°09'0 0.0
2018-Jun-23 11:30N 51°57' E 004°09'0 0.0
2018-Jun-23 11:00N 51°57' E 004°09'0 0.0
2018-Jun-23 10:30N 51°57' E 004°09'0 0.0
2018-Jun-23 10:00N 51°57' E 004°09'0 0.0
2018-Jun-23 09:30N 51°57' E 004°09'0 0.0
2018-Jun-23 09:00N 51°57' E 004°09'0 0.0
2018-Jun-23 08:27N 51°57' E 004°09'0 0.0
2018-Jun-23 08:00N 51°57' E 004°09'0 0.0
2018-Jun-23 07:30N 51°57' E 004°09'0 0.0
2018-Jun-23 06:57N 51°57' E 004°09'0 0.0
2018-Jun-23 06:30N 51°57' E 004°09'0 0.0
2018-Jun-23 06:00N 51°57' E 004°09'0 0.0
2018-Jun-23 05:30N 51°57' E 004°09'0 0.0
2018-Jun-23 04:54N 51°57' E 004°09'0 0.0
2018-Jun-23 04:30N 51°57' E 004°09'0 0.0
2018-Jun-23 04:00N 51°57' E 004°09'0 0.0
2018-Jun-23 03:30N 51°57' E 004°09'0 0.0
2018-Jun-23 02:54N 51°57' E 004°09'0 0.0
2018-Jun-23 02:30N 51°57' E 004°09'0 0.0
2018-Jun-23 02:00N 51°57' E 004°09'0 0.0
2018-Jun-23 01:30N 51°57' E 004°09'0 0.0
2018-Jun-23 01:00N 51°57' E 004°09'0 0.0
2018-Jun-23 00:30N 51°57' E 004°09'0 0.0
2018-Jun-23 00:00N 51°57' E 004°09'0 0.0
2018-Jun-22 23:30N 51°57' E 004°09'0 0.0
2018-Jun-22 23:00N 51°57' E 004°09'0 0.0
2018-Jun-22 22:30N 51°57' E 004°09'0 0.0
2018-Jun-22 22:00N 51°57' E 004°09'0 0.0
2018-Jun-22 21:30N 51°57' E 004°09'0 0.0
2018-Jun-22 20:57N 51°57' E 004°09'0 0.0
2018-Jun-22 20:30N 51°57' E 004°09'0 0.0
2018-Jun-22 20:00N 51°57' E 004°09'0 0.0
2018-Jun-22 19:30N 51°57' E 004°09'0 0.0
2018-Jun-22 19:00N 51°57' E 004°09'0 0.0
2018-Jun-22 18:30N 51°57' E 004°09'0 0.0
2018-Jun-22 18:00N 51°57' E 004°09'0 0.0
2018-Jun-22 17:30N 51°57' E 004°09'0 0.0
2018-Jun-22 17:00N 51°57' E 004°09'0 0.0
2018-Jun-22 16:30N 51°57' E 004°09'0 0.0
2018-Jun-22 16:00N 51°57' E 004°09'0 0.0
2018-Jun-22 15:30N 51°57' E 004°09'0 0.0
2018-Jun-22 15:00N 51°57' E 004°09'0 0.0
2018-Jun-22 14:30N 51°57' E 004°09'0 0.0
2018-Jun-22 14:00N 51°57' E 004°09'0 0.0
2018-Jun-22 13:30N 51°57' E 004°09'0 0.0
2018-Jun-22 13:00N 51°57' E 004°09'0 0.0
2018-Jun-22 12:30N 51°57' E 004°09'0 0.0
2018-Jun-22 12:00N 51°57' E 004°09'0 0.0
2018-Jun-22 11:30N 51°57' E 004°09'0 0.0
2018-Jun-22 11:00N 51°57' E 004°09'0 0.0
2018-Jun-22 10:30N 51°57' E 004°09'0 0.0
2018-Jun-22 10:00N 51°57' E 004°09'0 0.0
2018-Jun-22 09:30N 51°57' E 004°09'0 0.0
2018-Jun-22 09:00N 51°57' E 004°09'0 0.0
2018-Jun-22 08:30N 51°57' E 004°09'0 0.0
2018-Jun-22 08:00N 51°57' E 004°09'0 0.0
2018-Jun-22 07:30N 51°57' E 004°09'0 0.0
2018-Jun-22 07:00N 51°57' E 004°09'0 0.0
2018-Jun-22 06:30N 51°57' E 004°09'0 0.0
2018-Jun-22 06:00N 51°57' E 004°09'0 0.0
2018-Jun-22 05:30N 51°57' E 004°09'0 0.0
2018-Jun-22 05:00N 51°57' E 004°09'0 0.0
2018-Jun-22 04:30N 51°57' E 004°09'0 0.0
2018-Jun-22 04:00N 51°57' E 004°09'0 0.0
2018-Jun-22 03:30N 51°57' E 004°09'0 0.0
2018-Jun-22 03:00N 51°57' E 004°09'0 0.0
2018-Jun-22 02:30N 51°57' E 004°09'0 0.0
2018-Jun-22 02:00N 51°57' E 004°09'0 0.0
2018-Jun-22 01:30N 51°57' E 004°09'0 0.0
2018-Jun-22 01:00N 51°57' E 004°09'0 0.0
2018-Jun-22 00:30N 51°57' E 004°09'0 0.0
2018-Jun-22 00:00N 51°57' E 004°09'0 0.0
2018-Jun-21 23:30N 51°57' E 004°09'0 0.0
2018-Jun-21 23:00N 51°57' E 004°09'0 0.0
2018-Jun-21 22:30N 51°57' E 004°09'0 0.0
2018-Jun-21 22:00N 51°57' E 004°09'0 0.0
2018-Jun-21 21:30N 51°57' E 004°09'0 0.0
2018-Jun-21 21:00N 51°57' E 004°09'0 0.0
2018-Jun-21 20:30N 51°57' E 004°09'0 0.0
2018-Jun-21 19:54N 51°57' E 004°09'0 0.0
2018-Jun-21 19:30N 51°57' E 004°09'0 0.0
2018-Jun-21 19:00N 51°57' E 004°09'0 0.0
2018-Jun-21 18:30N 51°57' E 004°09'0 0.0
2018-Jun-21 17:57N 51°57' E 004°09'0 0.0
2018-Jun-21 17:30N 51°57' E 004°09'0 0.0
2018-Jun-21 17:00N 51°57' E 004°09'0 0.0
2018-Jun-21 16:30N 51°57' E 004°09'0 0.2
2018-Jun-21 16:00N 51°57' E 004°09'3 5.9
2018-Jun-21 15:30N 51°59' E 004°04'5 9.6
2018-Jun-21 15:00N 51°60' E 003°57'4 7.9
2018-Jun-21 14:30N 51°59' E 003°50'4 8.6
2018-Jun-21 14:00N 51°59' E 003°44'4 7.4
2018-Jun-21 13:30N 51°58' E 003°38'510.0
2018-Jun-21 13:00N 51°56' E 003°30'510.1
2018-Jun-21 12:30N 51°55' E 003°22'510.0
2018-Jun-21 11:57N 51°54' E 003°13'4 5.2
2018-Jun-21 11:05N 51°52' E 003°07'1 9.2
2018-Jun-21 11:00N 51°52' E 003°06'444 9.4
2018-Jun-19 11:50N 57°39' E 011°05'310.5
2018-Jun-19 11:30N 57°37' E 011°09'510.4
2018-Jun-19 11:00N 57°33' E 011°16'510.2
2018-Jun-19 10:30N 57°29' E 011°23'510.1
2018-Jun-19 10:00N 57°25' E 011°28'510.7
2018-Jun-19 09:30N 57°20' E 011°33'12510.3
2018-Jun-18 21:22N 55°16' E 011°05'411.0
2018-Jun-18 21:00N 55°12' E 011°06'611.4
2018-Jun-18 20:30N 55°07' E 011°03'611.5
2018-Jun-18 20:00N 55°01' E 010°60'511.0
2018-Jun-18 19:30N 54°57' E 010°54'510.8
2018-Jun-18 19:01N 54°52' E 010°50'510.3
2018-Jun-18 18:31N 54°47' E 010°49'611.1
2018-Jun-18 18:00N 54°41' E 010°48'511.0
2018-Jun-18 17:31N 54°38' E 010°55'510.7
2018-Jun-18 17:00N 54°36' E 011°04'510.9
2018-Jun-18 16:31N 54°36' E 011°13'611.4
2018-Jun-18 16:00N 54°33' E 011°22'611.8
2018-Jun-18 15:31N 54°31' E 011°31'611.4
2018-Jun-18 15:00N 54°28' E 011°40'611.1
2018-Jun-18 14:30N 54°27' E 011°50'611.7
2018-Jun-18 14:00N 54°27' E 011°60'611.7
2018-Jun-18 13:30N 54°27' E 012°10'510.7
2018-Jun-18 13:00N 54°31' E 012°14'6010.3
2018-Jun-18 07:10N 54°60' E 013°46'312.2
2018-Jun-18 06:57N 55°01' E 013°50'1212.0
2018-Jun-18 05:59N 55°07' E 014°08'912.2
2018-Jun-18 05:16N 55°14' E 014°17'412.3
2018-Jun-18 04:56N 55°17' E 014°22'512.4
2018-Jun-18 04:30N 55°21' E 014°28'612.2
2018-Jun-18 04:00N 55°26' E 014°35'612.1
2018-Jun-18 03:29N 55°29' E 014°44'611.9
2018-Jun-18 03:00N 55°31' E 014°53'611.8
2018-Jun-18 02:27N 55°34' E 015°04'812.1
2018-Jun-18 01:47N 55°38' E 015°16'312.1
2018-Jun-18 01:30N 55°39' E 015°22'1112.1
2018-Jun-18 00:36N 55°41' E 015°41'6112.3
2018-Jun-17 19:36N 55°56' E 017°27'112.3
2018-Jun-17 19:30N 55°57' E 017°29'612.0
2018-Jun-17 18:58N 55°59' E 017°40'612.3
2018-Jun-17 18:31N 56°01' E 017°49'1312.2
2018-Jun-17 17:28N 56°08' E 018°08'1712.2
2018-Jun-17 16:07N 56°17' E 018°33'9712.3
2018-Jun-17 08:11N 57°41' E 020°01'2111.1
2018-Jun-17 06:19N 57°49' E 020°37'412.4
2018-Jun-17 06:00N 57°50' E 020°44'712.4
2018-Jun-17 05:25N 57°50' E 020°58'612.3
2018-Jun-17 04:55N 57°51' E 021°10'512.3
2018-Jun-17 04:30N 57°51' E 021°19'712.4
2018-Jun-17 03:56N 57°51' E 021°32'  

Dump ship's entire track history